Time;durP1;ratioP1;P1;durP2;ratioP2;P2;SDS_P1;SDS_P2;PMS_P1;PMS_P2;Temp;Humidity;BMP_temperature;BMP_pressure;BME280_temperature;BME280_humidity;BME280_pressure;Samples;Min_cycle;Max_cycle;Signal;HPM_P1;HPM_P2
2023/06/22 00:00:13;;;;;;;8.87;6.87;;;;;;;;;;5111850;28;20210;-79
2023/06/22 00:02:39;;;;;;;9.10;6.77;;;;;;;;;;5094098;28;20207;-80
2023/06/22 00:05:07;;;;;;;8.40;6.67;;;;;;;;;;5102002;28;20200;-79
2023/06/22 00:07:34;;;;;;;7.00;6.43;;;;;;;;;;5106635;28;20282;-79
2023/06/22 00:10:00;;;;;;;7.07;6.33;;;;;;;;;;5091434;28;20206;-80
2023/06/22 00:12:28;;;;;;;9.80;6.83;;;;;;;;;;5108904;28;20670;-80
2023/06/22 00:14:55;;;;;;;8.10;7.10;;;;;;;;;;5099860;28;20224;-79
2023/06/22 00:17:22;;;;;;;8.83;6.43;;;;;;;;;;5090607;28;20211;-79
2023/06/22 00:19:53;;;;;;;7.93;7.23;;;;;;;;;;5103202;28;20207;-80
2023/06/22 00:22:27;;;;;;;7.00;6.33;;;;;;;;;;5110775;28;20211;-80
2023/06/22 00:24:54;;;;;;;7.53;6.07;;;;;;;;;;5097215;28;20204;-81
2023/06/22 00:27:21;;;;;;;6.87;6.27;;;;;;;;;;5098206;28;20207;-79
2023/06/22 00:29:49;;;;;;;9.30;7.10;;;;;;;;;;5097245;28;20192;-80
2023/06/22 00:32:17;;;;;;;7.33;6.50;;;;;;;;;;5091054;28;20196;-80
2023/06/22 00:34:43;;;;;;;9.30;6.80;;;;;;;;;;5091980;28;20353;-79
2023/06/22 00:37:11;;;;;;;7.40;6.70;;;;;;;;;;5103152;28;20643;-80
2023/06/22 00:39:37;;;;;;;9.33;6.10;;;;;;;;;;5092558;28;20207;-80
2023/06/22 00:42:05;;;;;;;14.23;6.83;;;;;;;;;;5102546;28;20208;-80
2023/06/22 00:44:31;;;;;;;7.33;6.63;;;;;;;;;;5092623;28;20201;-80
2023/06/22 00:47:01;;;;;;;6.97;6.23;;;;;;;;;;5111073;28;20199;-80
2023/06/22 00:49:27;;;;;;;7.03;6.33;;;;;;;;;;5111199;28;20215;-80
2023/06/22 00:51:55;;;;;;;8.07;7.27;;;;;;;;;;5106185;28;20774;-80
2023/06/22 00:54:25;;;;;;;8.40;6.87;;;;;;;;;;5097118;28;20220;-80
2023/06/22 00:56:54;;;;;;;8.10;7.27;;;;;;;;;;5115278;28;20199;-80
2023/06/22 00:59:21;;;;;;;7.03;6.33;;;;;;;;;;5115443;28;20308;-80
2023/06/22 01:01:48;;;;;;;8.67;7.13;;;;;;;;;;5114484;28;20203;-80
2023/06/22 01:04:17;;;;;;;7.60;6.90;;;;;;;;;;5097399;28;20202;-80
2023/06/22 01:06:47;;;;;;;8.00;7.27;;;;;;;;;;5094627;28;20205;-79
2023/06/22 01:09:16;;;;;;;7.13;6.43;;;;;;;;;;5100250;28;20738;-80
2023/06/22 01:11:46;;;;;;;8.07;7.27;;;;;;;;;;5102204;28;20207;-80
2023/06/22 01:14:16;;;;;;;7.50;6.87;;;;;;;;;;5114535;28;20211;-80
2023/06/22 01:16:45;;;;;;;7.23;6.57;;;;;;;;;;5114991;28;20758;-80
2023/06/22 01:19:26;;;;;;;6.97;6.27;;;;;;;;;;5094607;28;20257;-80
2023/06/22 01:21:54;;;;;;;7.10;6.40;;;;;;;;;;5108068;28;20214;-80
2023/06/22 01:24:25;;;;;;;7.10;6.40;;;;;;;;;;5094792;28;20204;-80
2023/06/22 01:27:06;;;;;;;8.03;6.50;;;;;;;;;;5097773;28;20195;-80
2023/06/22 01:29:35;;;;;;;6.73;6.13;;;;;;;;;;5114092;28;20750;-80
2023/06/22 01:32:03;;;;;;;7.20;6.50;;;;;;;;;;5094959;28;20189;-80
2023/06/22 01:34:32;;;;;;;7.07;6.33;;;;;;;;;;5094413;28;20220;-80
2023/06/22 01:36:59;;;;;;;7.77;7.07;;;;;;;;;;5100715;28;20227;-80
2023/06/22 01:39:26;;;;;;;7.73;7.03;;;;;;;;;;5114016;28;20703;-80
2023/06/22 01:41:54;;;;;;;7.70;7.00;;;;;;;;;;5101244;28;20207;-80
2023/06/22 01:44:21;;;;;;;7.57;6.87;;;;;;;;;;5114530;28;20196;-79
2023/06/22 01:46:50;;;;;;;9.23;7.50;;;;;;;;;;5114304;28;20231;-80
2023/06/22 01:49:17;;;;;;;11.93;7.73;;;;;;;;;;5099263;28;20204;-80
2023/06/22 01:51:43;;;;;;;7.53;6.83;;;;;;;;;;5094234;28;20351;-80
2023/06/22 01:54:10;;;;;;;8.77;7.07;;;;;;;;;;5108538;28;20203;-80
2023/06/22 01:56:37;;;;;;;7.77;7.10;;;;;;;;;;5105658;28;20215;-80
2023/06/22 01:59:08;;;;;;;10.27;7.00;;;;;;;;;;5107531;28;20203;-80
2023/06/22 02:01:39;;;;;;;8.97;7.13;;;;;;;;;;5102372;28;20204;-80
2023/06/22 02:04:14;;;;;;;8.20;7.17;;;;;;;;;;5114003;28;20203;-80
2023/06/22 02:06:44;;;;;;;7.77;7.17;;;;;;;;;;5113566;28;20191;-80
2023/06/22 02:09:13;;;;;;;7.97;7.17;;;;;;;;;;5113740;28;20203;-80
2023/06/22 02:11:41;;;;;;;7.93;7.13;;;;;;;;;;5101947;28;20208;-80
2023/06/22 02:14:09;;;;;;;8.70;7.13;;;;;;;;;;5106330;28;20269;-80
2023/06/22 02:16:37;;;;;;;8.10;7.40;;;;;;;;;;5093870;28;20199;-79
2023/06/22 02:19:05;;;;;;;8.13;6.53;;;;;;;;;;5099303;28;20199;-80
2023/06/22 02:21:34;;;;;;;9.67;7.47;;;;;;;;;;5100463;28;20201;-80
2023/06/22 02:24:00;;;;;;;7.57;6.87;;;;;;;;;;5093310;28;20200;-80
2023/06/22 02:26:29;;;;;;;8.33;7.50;;;;;;;;;;5106338;28;20209;-80
2023/06/22 02:28:56;;;;;;;8.60;7.50;;;;;;;;;;5093098;28;20201;-80
2023/06/22 02:31:22;;;;;;;9.07;6.77;;;;;;;;;;5106826;28;20199;-80
2023/06/22 02:33:49;;;;;;;8.37;7.53;;;;;;;;;;5093490;28;20253;-80
2023/06/22 02:36:16;;;;;;;8.43;7.30;;;;;;;;;;5093686;28;20231;-81
2023/06/22 02:38:48;;;;;;;7.83;7.13;;;;;;;;;;5113347;28;20200;-80
2023/06/22 02:41:17;;;;;;;7.67;6.87;;;;;;;;;;5098440;28;20701;-80
2023/06/22 02:43:45;;;;;;;8.40;7.53;;;;;;;;;;5101873;28;20284;-80
2023/06/22 02:46:12;;;;;;;7.40;6.70;;;;;;;;;;5099588;28;20274;-80
2023/06/22 02:48:39;;;;;;;7.83;7.23;;;;;;;;;;5103360;28;20697;-80
2023/06/22 02:51:06;;;;;;;8.13;7.33;;;;;;;;;;5106601;28;20231;-80
2023/06/22 02:53:33;;;;;;;10.10;7.37;;;;;;;;;;5093319;28;20269;-80
2023/06/22 02:56:03;;;;;;;9.97;7.83;;;;;;;;;;5095457;28;20705;-80
2023/06/22 02:58:29;;;;;;;9.03;8.23;;;;;;;;;;5112666;28;20612;-80
2023/06/22 03:00:56;;;;;;;9.07;7.33;;;;;;;;;;5099558;28;20195;-80
2023/06/22 03:03:26;;;;;;;8.47;7.57;;;;;;;;;;5102457;28;20192;-81
2023/06/22 03:05:53;;;;;;;12.93;8.47;;;;;;;;;;5096600;28;20200;-81
2023/06/22 03:08:19;;;;;;;9.97;8.33;;;;;;;;;;5101670;28;20705;-80
2023/06/22 03:10:46;;;;;;;8.43;7.63;;;;;;;;;;5096783;28;20203;-80
2023/06/22 03:13:14;;;;;;;9.00;7.33;;;;;;;;;;5111999;28;20226;-80
2023/06/22 03:15:41;;;;;;;8.17;7.37;;;;;;;;;;5107285;28;20706;-80
2023/06/22 03:18:08;;;;;;;8.90;8.10;;;;;;;;;;5103922;28;20211;-80
2023/06/22 03:20:36;;;;;;;9.27;8.37;;;;;;;;;;5107500;28;20200;-80
2023/06/22 03:23:02;;;;;;;8.80;7.73;;;;;;;;;;5104108;28;20202;-80
2023/06/22 03:25:29;;;;;;;15.93;8.57;;;;;;;;;;5112725;28;20196;-80
2023/06/22 03:27:56;;;;;;;8.23;7.13;;;;;;;;;;5111881;28;20210;-80
2023/06/22 03:30:24;;;;;;;8.63;7.93;;;;;;;;;;5106573;28;20219;-80
2023/06/22 03:32:50;;;;;;;9.17;7.70;;;;;;;;;;5104382;28;20200;-80
2023/06/22 03:35:17;;;;;;;8.83;8.03;;;;;;;;;;5098678;28;20211;-81
2023/06/22 03:37:44;;;;;;;10.13;7.80;;;;;;;;;;5099355;28;20204;-81
2023/06/22 03:40:12;;;;;;;10.10;9.00;;;;;;;;;;5094635;28;20277;-81
2023/06/22 03:42:39;;;;;;;8.83;8.00;;;;;;;;;;5111446;28;20724;-81
2023/06/22 03:45:06;;;;;;;8.97;8.10;;;;;;;;;;5111900;28;20200;-80
2023/06/22 03:47:35;;;;;;;8.97;8.27;;;;;;;;;;5111256;28;20622;-82
2023/06/22 03:50:03;;;;;;;9.93;8.93;;;;;;;;;;5097639;28;20196;-81
2023/06/22 03:52:30;;;;;;;8.80;8.10;;;;;;;;;;5112086;28;20286;-81
2023/06/22 03:54:56;;;;;;;10.23;7.40;;;;;;;;;;5111347;28;20653;-81
2023/06/22 03:57:23;;;;;;;9.47;8.77;;;;;;;;;;5099751;28;20265;-80
2023/06/22 03:59:51;;;;;;;8.93;8.03;;;;;;;;;;5105712;28;20622;-80
2023/06/22 04:02:18;;;;;;;10.97;8.43;;;;;;;;;;5103428;28;20253;-86
2023/06/22 04:04:48;;;;;;;8.40;7.70;;;;;;;;;;5104761;28;20215;-82
2023/06/22 04:07:15;;;;;;;9.23;8.43;;;;;;;;;;5090689;28;20666;-82
2023/06/22 04:09:41;;;;;;;10.27;8.80;;;;;;;;;;5096519;28;20685;-82
2023/06/22 04:12:09;;;;;;;8.30;7.50;;;;;;;;;;5110793;28;20207;-82
2023/06/22 04:14:36;;;;;;;9.73;8.93;;;;;;;;;;5110607;28;20208;-82
2023/06/22 04:17:04;;;;;;;10.13;9.13;;;;;;;;;;5109762;28;20280;-82
2023/06/22 04:19:31;;;;;;;9.30;8.50;;;;;;;;;;5098501;28;20199;-82
2023/06/22 04:21:59;;;;;;;9.40;8.53;;;;;;;;;;5097884;28;20200;-82
2023/06/22 04:24:26;;;;;;;9.47;8.67;;;;;;;;;;5101541;28;20215;-82
2023/06/22 04:26:54;;;;;;;9.70;8.90;;;;;;;;;;5094387;28;20677;-82
2023/06/22 04:29:29;;;;;;;11.47;7.77;;;;;;;;;;5100637;28;20599;-82
2023/06/22 04:31:58;;;;;;;11.23;10.17;;;;;;;;;;5104589;28;20742;-81
2023/06/22 04:34:27;;;;;;;8.40;7.70;;;;;;;;;;5091393;28;20200;-81
2023/06/22 04:36:54;;;;;;;9.73;8.83;;;;;;;;;;5109983;28;20250;-81
2023/06/22 04:39:23;;;;;;;10.07;8.27;;;;;;;;;;5098550;28;20265;-81
2023/06/22 04:41:51;;;;;;;15.83;9.47;;;;;;;;;;5090996;28;20228;-81
2023/06/22 04:44:23;;;;;;;8.87;7.90;;;;;;;;;;5090529;28;20756;-81
2023/06/22 04:46:53;;;;;;;9.07;8.27;;;;;;;;;;5091111;28;20556;-80
2023/06/22 04:49:21;;;;;;;8.73;8.03;;;;;;;;;;5092735;28;20231;-81
2023/06/22 04:51:48;;;;;;;10.73;8.77;;;;;;;;;;5102268;28;20228;-81
2023/06/22 04:54:15;;;;;;;11.47;7.87;;;;;;;;;;5104264;28;20199;-81
2023/06/22 04:56:46;;;;;;;14.43;8.67;;;;;;;;;;5090906;28;20223;-80
2023/06/22 04:59:13;;;;;;;12.03;8.83;;;;;;;;;;5093860;28;20199;-81
2023/06/22 05:01:40;;;;;;;11.23;8.83;;;;;;;;;;5110921;28;20586;-81
2023/06/22 05:04:07;;;;;;;8.80;7.80;;;;;;;;;;5111299;28;20764;-81
2023/06/22 05:06:35;;;;;;;8.87;8.00;;;;;;;;;;5110886;28;20224;-81
2023/06/22 05:09:03;;;;;;;8.53;7.70;;;;;;;;;;5096918;28;20249;-81
2023/06/22 05:11:30;;;;;;;8.50;7.70;;;;;;;;;;5111229;28;20228;-81
2023/06/22 05:13:58;;;;;;;8.63;7.93;;;;;;;;;;5106461;28;20204;-81
2023/06/22 05:16:25;;;;;;;9.53;8.57;;;;;;;;;;5102308;28;20227;-81
2023/06/22 05:18:53;;;;;;;8.73;7.53;;;;;;;;;;5092479;28;20301;-81
2023/06/22 05:21:22;;;;;;;8.60;7.80;;;;;;;;;;5103030;28;20287;-81
2023/06/22 05:23:49;;;;;;;9.57;7.87;;;;;;;;;;5106011;28;20569;-81
2023/06/22 05:26:16;;;;;;;9.37;8.33;;;;;;;;;;5091057;28;20215;-80
2023/06/22 05:28:45;;;;;;;10.17;8.20;;;;;;;;;;5108991;28;20192;-81
2023/06/22 05:31:14;;;;;;;9.40;8.60;;;;;;;;;;5110496;28;20195;-81
2023/06/22 05:33:41;;;;;;;8.63;7.77;;;;;;;;;;5090993;28;20296;-81
2023/06/22 05:36:08;;;;;;;9.40;8.27;;;;;;;;;;5092566;28;20706;-81
2023/06/22 05:38:36;;;;;;;11.33;9.17;;;;;;;;;;5100380;28;20199;-80
2023/06/22 05:41:06;;;;;;;9.77;8.77;;;;;;;;;;5114192;28;20249;-80
2023/06/22 05:43:33;;;;;;;9.73;8.80;;;;;;;;;;5093943;28;20200;-81
2023/06/22 05:46:01;;;;;;;9.37;8.43;;;;;;;;;;5095160;28;20208;-81
2023/06/22 05:48:29;;;;;;;9.47;8.53;;;;;;;;;;5105887;28;20196;-81
2023/06/22 05:50:55;;;;;;;9.97;8.90;;;;;;;;;;5093723;28;20289;-80
2023/06/22 05:53:22;;;;;;;9.23;8.43;;;;;;;;;;5094058;28;20204;-81
2023/06/22 05:55:50;;;;;;;9.40;8.50;;;;;;;;;;5107062;28;20223;-81
2023/06/22 05:58:17;;;;;;;9.43;8.53;;;;;;;;;;5093341;28;20197;-81
2023/06/22 06:00:44;;;;;;;9.50;8.70;;;;;;;;;;5110123;28;20200;-81
2023/06/22 06:03:11;;;;;;;9.20;8.40;;;;;;;;;;5104190;28;20200;-81
2023/06/22 06:05:39;;;;;;;10.20;9.40;;;;;;;;;;5107158;28;20211;-80
2023/06/22 06:08:10;;;;;;;8.90;8.20;;;;;;;;;;5103895;28;20207;-81
2023/06/22 06:10:37;;;;;;;8.47;7.63;;;;;;;;;;5095749;28;20192;-80
2023/06/22 06:13:04;;;;;;;9.43;7.70;;;;;;;;;;5104700;28;20199;-81
2023/06/22 06:15:31;;;;;;;9.50;8.60;;;;;;;;;;5109918;28;20313;-81
2023/06/22 06:17:57;;;;;;;8.83;8.03;;;;;;;;;;5104296;28;20199;-81
2023/06/22 06:20:25;;;;;;;10.40;9.40;;;;;;;;;;5099710;28;20195;-81
2023/06/22 06:22:53;;;;;;;12.83;9.40;;;;;;;;;;5113281;28;20256;-81
2023/06/22 06:25:21;;;;;;;14.60;9.67;;;;;;;;;;5099818;28;20204;-81
2023/06/22 06:27:49;;;;;;;8.93;8.13;;;;;;;;;;5102441;28;20205;-81
2023/06/22 06:30:17;;;;;;;9.23;8.50;;;;;;;;;;5111353;28;20261;-81
2023/06/22 06:32:45;;;;;;;8.97;8.13;;;;;;;;;;5112872;28;20199;-81
2023/06/22 06:35:13;;;;;;;7.53;6.93;;;;;;;;;;5108924;28;20602;-81
2023/06/22 06:37:41;;;;;;;8.27;7.57;;;;;;;;;;5105079;28;20227;-81
2023/06/22 06:40:13;;;;;;;8.77;8.07;;;;;;;;;;5093956;28;20638;-81
2023/06/22 06:42:41;;;;;;;8.83;8.03;;;;;;;;;;5105610;28;20260;-81
2023/06/22 06:45:09;;;;;;;9.70;7.90;;;;;;;;;;5112675;28;20731;-81
2023/06/22 06:47:36;;;;;;;9.37;8.37;;;;;;;;;;5111782;28;20215;-81
2023/06/22 06:50:03;;;;;;;12.57;9.07;;;;;;;;;;5113296;28;20195;-81
2023/06/22 06:52:30;;;;;;;8.65;7.95;;;;;;;;;;5112488;28;20210;-81
2023/06/22 06:54:57;;;;;;;9.00;8.10;;;;;;;;;;5099926;28;20587;-81
2023/06/22 06:57:28;;;;;;;7.78;7.18;;;;;;;;;;5098988;28;20224;-81
2023/06/22 06:59:56;;;;;;;8.90;8.13;;;;;;;;;;5104711;28;20281;-81
2023/06/22 07:02:22;;;;;;;10.85;7.90;;;;;;;;;;5105643;28;20675;-81
2023/06/22 07:04:49;;;;;;;8.98;8.05;;;;;;;;;;5101447;28;20246;-81
2023/06/22 07:07:16;;;;;;;7.20;6.50;;;;;;;;;;5098659;28;20208;-81
2023/06/22 07:09:43;;;;;;;8.82;8.05;;;;;;;;;;5103535;28;20565;-81
2023/06/22 07:12:10;;;;;;;9.30;8.52;;;;;;;;;;5107941;28;20218;-81
2023/06/22 07:14:38;;;;;;;9.00;7.40;;;;;;;;;;5103387;28;20197;-81
2023/06/22 07:17:05;;;;;;;8.25;7.53;;;;;;;;;;5094822;28;20227;-81
2023/06/22 07:19:33;;;;;;;8.40;7.40;;;;;;;;;;5112452;28;20195;-82
2023/06/22 07:22:00;;;;;;;8.23;7.30;;;;;;;;;;5099090;28;20208;-82
2023/06/22 07:24:27;;;;;;;10.70;8.07;;;;;;;;;;5102536;28;20222;-81
2023/06/22 07:26:54;;;;;;;8.05;6.72;;;;;;;;;;5107818;28;20199;-81
2023/06/22 07:29:21;;;;;;;9.00;8.20;;;;;;;;;;5102630;28;20211;-82
2023/06/22 07:31:51;;;;;;;7.30;6.80;;;;;;;;;;5105231;28;20287;-82
2023/06/22 07:34:18;;;;;;;8.25;7.60;;;;;;;;;;5102576;28;20207;-82
2023/06/22 07:36:45;;;;;;;8.52;7.55;;;;;;;;;;5098349;28;20223;-81
2023/06/22 07:39:12;;;;;;;9.80;8.80;;;;;;;;;;5100778;28;20211;-81
2023/06/22 07:41:40;;;;;;;9.05;8.27;;;;;;;;;;5096201;28;20635;-81
2023/06/22 07:44:07;;;;;;;9.07;8.25;;;;;;;;;;5100490;28;20204;-82
2023/06/22 07:46:34;;;;;;;8.77;7.97;;;;;;;;;;5105086;28;20312;-82
2023/06/22 07:49:02;;;;;;;9.10;8.30;;;;;;;;;;5103425;28;20734;-81
2023/06/22 07:51:29;;;;;;;8.55;7.53;;;;;;;;;;5112170;28;20649;-81
2023/06/22 07:53:56;;;;;;;9.75;8.73;;;;;;;;;;5099416;28;20200;-81
2023/06/22 07:56:23;;;;;;;7.97;7.38;;;;;;;;;;5110576;28;20219;-81
2023/06/22 07:58:49;;;;;;;8.65;7.80;;;;;;;;;;5111390;28;20211;-81
2023/06/22 08:01:16;;;;;;;8.50;7.63;;;;;;;;;;5106039;28;20200;-82
2023/06/22 08:03:43;;;;;;;7.95;7.15;;;;;;;;;;5103441;28;20206;-81
2023/06/22 08:06:11;;;;;;;9.23;8.43;;;;;;;;;;5105869;28;20208;-82
2023/06/22 08:08:38;;;;;;;8.70;8.00;;;;;;;;;;5090784;28;20265;-81
2023/06/22 08:11:05;;;;;;;7.82;7.05;;;;;;;;;;5104977;28;20204;-82
2023/06/22 08:13:32;;;;;;;8.35;7.60;;;;;;;;;;5091250;28;20679;-82
2023/06/22 08:15:59;;;;;;;8.75;7.95;;;;;;;;;;5104757;28;20196;-82
2023/06/22 08:18:25;;;;;;;7.65;7.05;;;;;;;;;;5104472;28;20256;-82
2023/06/22 08:20:52;;;;;;;9.70;8.27;;;;;;;;;;5090932;28;20630;-82
2023/06/22 08:23:20;;;;;;;9.35;6.85;;;;;;;;;;5104203;28;21656;-82
2023/06/22 08:25:47;;;;;;;11.43;7.25;;;;;;;;;;5111444;28;20747;-82
2023/06/22 08:28:14;;;;;;;7.45;6.85;;;;;;;;;;5110453;28;20666;-82
2023/06/22 08:30:41;;;;;;;7.65;6.88;;;;;;;;;;5098935;28;20204;-82
2023/06/22 08:33:11;;;;;;;7.43;6.60;;;;;;;;;;5096548;28;20637;-82
2023/06/22 08:35:38;;;;;;;7.18;6.57;;;;;;;;;;5091053;28;20319;-82
2023/06/22 08:38:08;;;;;;;9.68;7.50;;;;;;;;;;5104003;28;20229;-82
2023/06/22 08:40:36;;;;;;;7.43;6.82;;;;;;;;;;5100977;28;20205;-81
2023/06/22 08:43:03;;;;;;;7.63;6.97;;;;;;;;;;5094262;28;20192;-82
2023/06/22 08:45:30;;;;;;;8.50;7.78;;;;;;;;;;5100976;28;20810;-82
2023/06/22 08:47:57;;;;;;;8.93;7.78;;;;;;;;;;5111053;28;20249;-82
2023/06/22 08:50:23;;;;;;;8.45;7.72;;;;;;;;;;5101480;28;20297;-83
2023/06/22 08:52:50;;;;;;;8.57;7.72;;;;;;;;;;5093685;28;20681;-82
2023/06/22 08:55:17;;;;;;;9.00;8.25;;;;;;;;;;5100877;28;20197;-82
2023/06/22 08:57:45;;;;;;;8.45;7.75;;;;;;;;;;5104522;28;20281;-82
2023/06/22 09:00:17;;;;;;;8.95;8.05;;;;;;;;;;5090808;28;20257;-82
2023/06/22 09:02:44;;;;;;;8.90;8.20;;;;;;;;;;5094699;28;20203;-82
2023/06/22 09:05:10;;;;;;;10.18;8.23;;;;;;;;;;5111155;28;20681;-82
2023/06/22 09:07:37;;;;;;;7.97;7.13;;;;;;;;;;5106079;28;20211;-83
2023/06/22 09:10:05;;;;;;;8.77;8.02;;;;;;;;;;5102148;28;20206;-82
2023/06/22 09:12:32;;;;;;;7.88;7.28;;;;;;;;;;5101590;28;20207;-81
2023/06/22 09:15:02;;;;;;;9.60;7.57;;;;;;;;;;5115454;28;20203;-82
2023/06/22 09:17:29;;;;;;;8.02;7.43;;;;;;;;;;5114244;28;20697;-82
2023/06/22 09:19:55;;;;;;;8.27;7.55;;;;;;;;;;5114977;28;20203;-82
2023/06/22 09:22:22;;;;;;;8.48;7.70;;;;;;;;;;5108822;28;20204;-82
2023/06/22 09:27:36;;;;;;;8.75;7.72;;;;;;;;;;5094361;28;20214;-82
2023/06/22 09:32:49;;;;;;;8.63;7.80;;;;;;;;;;5114235;28;20300;-82
2023/06/22 09:35:16;;;;;;;9.02;8.23;;;;;;;;;;5114008;28;20674;-82
2023/06/22 09:37:43;;;;;;;8.65;7.95;;;;;;;;;;5114120;28;20232;-82
2023/06/22 09:40:12;;;;;;;9.10;8.40;;;;;;;;;;5101095;28;20200;-82
2023/06/22 09:42:39;;;;;;;9.50;8.65;;;;;;;;;;5101782;28;20287;-82
2023/06/22 09:45:09;;;;;;;9.02;8.23;;;;;;;;;;5112931;28;20203;-82
2023/06/22 09:47:35;;;;;;;10.10;9.13;;;;;;;;;;5114527;28;20272;-82
2023/06/22 09:50:03;;;;;;;8.65;7.72;;;;;;;;;;5107174;28;20197;-82
2023/06/22 09:52:29;;;;;;;9.00;8.20;;;;;;;;;;5107771;28;20199;-82
2023/06/22 09:54:56;;;;;;;9.38;8.48;;;;;;;;;;5100680;28;20204;-82
2023/06/22 09:57:23;;;;;;;7.85;7.15;;;;;;;;;;5100268;28;20220;-82
2023/06/22 09:59:50;;;;;;;9.77;7.88;;;;;;;;;;5100617;28;20200;-82
2023/06/22 10:02:18;;;;;;;8.63;7.82;;;;;;;;;;5100319;28;20204;-82
2023/06/22 10:04:44;;;;;;;8.48;7.88;;;;;;;;;;5093390;28;20692;-82
2023/06/22 10:07:11;;;;;;;8.57;7.70;;;;;;;;;;5106618;28;20760;-82
2023/06/22 10:09:38;;;;;;;9.15;8.35;;;;;;;;;;5101415;28;20233;-82
2023/06/22 10:12:05;;;;;;;10.00;8.52;;;;;;;;;;5099391;28;20651;-82
2023/06/22 10:14:32;;;;;;;9.88;8.95;;;;;;;;;;5101509;28;20211;-82
2023/06/22 10:16:59;;;;;;;8.75;7.40;;;;;;;;;;5099957;28;20234;-82
2023/06/22 10:19:27;;;;;;;9.90;8.65;;;;;;;;;;5113543;28;20751;-83
2023/06/22 10:21:53;;;;;;;9.65;8.27;;;;;;;;;;5097876;28;20204;-82
2023/06/22 10:24:20;;;;;;;8.88;8.07;;;;;;;;;;5093699;28;20200;-82
2023/06/22 10:26:47;;;;;;;8.93;7.85;;;;;;;;;;5108589;28;20692;-82
2023/06/22 10:29:14;;;;;;;9.45;8.57;;;;;;;;;;5113574;28;20580;-82
2023/06/22 10:31:40;;;;;;;9.75;8.95;;;;;;;;;;5099261;28;20200;-82
2023/06/22 10:34:10;;;;;;;10.80;8.18;;;;;;;;;;5113643;28;20203;-82
2023/06/22 10:36:39;;;;;;;12.73;8.95;;;;;;;;;;5096608;28;20697;-82
2023/06/22 10:39:06;;;;;;;9.45;7.80;;;;;;;;;;5103047;28;20222;-82
2023/06/22 10:41:33;;;;;;;9.75;8.85;;;;;;;;;;5112681;28;20282;-82
2023/06/22 10:43:59;;;;;;;8.27;7.57;;;;;;;;;;5112389;28;20290;-82
2023/06/22 10:46:27;;;;;;;9.55;8.65;;;;;;;;;;5095868;28;20249;-82
2023/06/22 10:48:56;;;;;;;9.80;8.90;;;;;;;;;;5103004;28;20799;-82
2023/06/22 10:51:23;;;;;;;8.63;7.88;;;;;;;;;;5112954;28;20276;-82
2023/06/22 10:53:51;;;;;;;8.43;7.72;;;;;;;;;;5101739;28;20208;-82
2023/06/22 10:56:19;;;;;;;9.40;8.57;;;;;;;;;;5106187;28;20671;-82
2023/06/22 10:58:46;;;;;;;9.10;8.40;;;;;;;;;;5092126;28;20305;-82
2023/06/22 11:01:12;;;;;;;8.95;8.25;;;;;;;;;;5106312;28;20620;-82
2023/06/22 11:03:39;;;;;;;8.93;8.02;;;;;;;;;;5092600;28;20283;-82
2023/06/22 11:06:07;;;;;;;7.80;7.20;;;;;;;;;;5097954;28;20196;-82
2023/06/22 11:08:34;;;;;;;8.23;7.30;;;;;;;;;;5100298;28;20580;-82
2023/06/22 11:11:02;;;;;;;9.23;8.43;;;;;;;;;;5111640;28;20203;-82
2023/06/22 11:13:28;;;;;;;8.63;7.68;;;;;;;;;;5099203;28;20201;-82
2023/06/22 11:15:55;;;;;;;8.32;7.63;;;;;;;;;;5105848;28;20580;-82
2023/06/22 11:18:23;;;;;;;7.93;7.32;;;;;;;;;;5104841;28;20731;-82
2023/06/22 11:20:49;;;;;;;8.60;7.82;;;;;;;;;;5112406;28;20657;-82
2023/06/22 11:23:16;;;;;;;8.80;8.00;;;;;;;;;;5099063;28;20196;-82
2023/06/22 11:25:43;;;;;;;8.68;7.60;;;;;;;;;;5098881;28;20203;-82
2023/06/22 11:28:11;;;;;;;8.65;7.85;;;;;;;;;;5111987;28;20264;-82
2023/06/22 11:30:38;;;;;;;10.77;8.57;;;;;;;;;;5092033;28;20200;-82
2023/06/22 11:33:05;;;;;;;8.38;7.57;;;;;;;;;;5091617;28;20208;-82
2023/06/22 11:35:32;;;;;;;8.00;7.22;;;;;;;;;;5099414;28;20286;-82
2023/06/22 11:38:00;;;;;;;7.38;6.88;;;;;;;;;;5096907;28;20224;-82
2023/06/22 11:40:27;;;;;;;8.63;7.93;;;;;;;;;;5091805;28;20200;-82
2023/06/22 11:42:56;;;;;;;8.25;7.45;;;;;;;;;;5104893;28;20199;-82
2023/06/22 11:45:24;;;;;;;8.60;7.47;;;;;;;;;;5100455;28;20232;-82
2023/06/22 11:47:51;;;;;;;7.82;7.13;;;;;;;;;;5112051;28;20595;-82
2023/06/22 11:50:18;;;;;;;7.60;6.97;;;;;;;;;;5111761;28;20223;-82
2023/06/22 11:52:45;;;;;;;7.90;7.30;;;;;;;;;;5097398;28;20257;-82
2023/06/22 11:55:12;;;;;;;8.32;7.72;;;;;;;;;;5102478;28;20204;-82
2023/06/22 11:57:39;;;;;;;8.10;7.47;;;;;;;;;;5104759;28;20224;-81
2023/06/22 12:00:15;;;;;;;8.20;7.35;;;;;;;;;;5101646;28;20200;-82
2023/06/22 12:02:44;;;;;;;7.80;7.18;;;;;;;;;;5093390;28;20192;-81
2023/06/22 12:05:12;;;;;;;6.70;6.20;;;;;;;;;;5091876;28;20204;-82
2023/06/22 12:07:39;;;;;;;6.70;6.20;;;;;;;;;;5095899;28;20207;-83
2023/06/22 12:10:06;;;;;;;7.05;6.55;;;;;;;;;;5111459;28;20206;-81
2023/06/22 12:12:36;;;;;;;6.15;5.65;;;;;;;;;;5105787;28;20219;-81
2023/06/22 12:15:05;;;;;;;7.35;6.00;;;;;;;;;;5103778;28;20210;-81
2023/06/22 12:17:32;;;;;;;7.32;5.70;;;;;;;;;;5097410;28;20203;-82
2023/06/22 12:20:01;;;;;;;6.78;6.28;;;;;;;;;;5097745;28;20678;-82
2023/06/22 12:22:30;;;;;;;6.03;5.53;;;;;;;;;;5097717;28;20211;-81
2023/06/22 12:24:57;;;;;;;6.00;5.55;;;;;;;;;;5097256;28;20675;-81
2023/06/22 12:27:23;;;;;;;6.05;5.55;;;;;;;;;;5111588;28;20272;-81
2023/06/22 12:29:50;;;;;;;6.78;6.13;;;;;;;;;;5110083;28;20207;-81
2023/06/22 12:32:17;;;;;;;6.18;5.60;;;;;;;;;;5098479;28;20199;-81
2023/06/22 12:34:44;;;;;;;13.45;6.38;;;;;;;;;;5110105;28;20231;-81
2023/06/22 12:37:12;;;;;;;6.20;5.72;;;;;;;;;;5098655;28;20198;-81
2023/06/22 12:39:41;;;;;;;6.60;6.10;;;;;;;;;;5097252;28;20220;-81
2023/06/22 12:42:09;;;;;;;7.07;6.47;;;;;;;;;;5102285;28;20204;-81
2023/06/22 12:44:36;;;;;;;5.75;5.35;;;;;;;;;;5104217;28;20195;-81
2023/06/22 12:47:03;;;;;;;6.63;5.60;;;;;;;;;;5103478;28;20589;-81
2023/06/22 12:49:30;;;;;;;6.78;6.18;;;;;;;;;;5099131;28;20624;-81
2023/06/22 12:51:56;;;;;;;6.47;5.95;;;;;;;;;;5104498;28;20728;-81
2023/06/22 12:54:25;;;;;;;6.97;6.30;;;;;;;;;;5099136;28;20200;-81
2023/06/22 12:56:52;;;;;;;6.05;5.55;;;;;;;;;;5104988;28;20202;-81
2023/06/22 12:59:18;;;;;;;5.97;5.57;;;;;;;;;;5111616;28;20215;-81
2023/06/22 13:01:45;;;;;;;5.82;5.43;;;;;;;;;;5094444;28;20203;-81
2023/06/22 13:04:14;;;;;;;7.25;6.55;;;;;;;;;;5111826;28;20670;-81
2023/06/22 13:06:41;;;;;;;6.53;5.93;;;;;;;;;;5114946;28;20619;-81
2023/06/22 13:09:10;;;;;;;5.75;5.35;;;;;;;;;;5101262;28;20248;-81
2023/06/22 13:11:38;;;;;;;5.55;5.07;;;;;;;;;;5115268;28;20210;-80
2023/06/22 13:14:05;;;;;;;5.85;5.35;;;;;;;;;;5114260;28;20211;-81
2023/06/22 13:16:32;;;;;;;6.20;5.70;;;;;;;;;;5114707;28;20203;-81
2023/06/22 13:18:58;;;;;;;6.60;6.00;;;;;;;;;;5101343;28;20284;-80
2023/06/22 13:21:25;;;;;;;6.30;5.80;;;;;;;;;;5114578;28;20281;-81
2023/06/22 13:23:52;;;;;;;8.57;5.85;;;;;;;;;;5109797;28;20200;-81
2023/06/22 13:26:18;;;;;;;6.05;5.55;;;;;;;;;;5094361;28;20732;-81
2023/06/22 13:28:47;;;;;;;6.30;5.70;;;;;;;;;;5107444;28;20671;-81
2023/06/22 13:31:13;;;;;;;5.70;5.30;;;;;;;;;;5107272;28;20264;-81
2023/06/22 13:33:40;;;;;;;5.97;5.47;;;;;;;;;;5094837;28;20200;-80
2023/06/22 13:36:07;;;;;;;5.45;5.00;;;;;;;;;;5106680;28;20626;-81
2023/06/22 13:38:38;;;;;;;6.75;5.68;;;;;;;;;;5107857;28;20662;-81
2023/06/22 13:41:07;;;;;;;5.63;5.22;;;;;;;;;;5107502;28;20283;-80
2023/06/22 13:43:34;;;;;;;5.53;5.13;;;;;;;;;;5093970;28;20223;-81
2023/06/22 13:46:03;;;;;;;5.65;5.25;;;;;;;;;;5094350;28;20208;-80
2023/06/22 13:48:30;;;;;;;6.32;5.43;;;;;;;;;;5101563;28;20207;-81
2023/06/22 13:50:58;;;;;;;6.40;5.45;;;;;;;;;;5112728;28;20231;-80
2023/06/22 13:53:25;;;;;;;5.40;5.00;;;;;;;;;;5102416;28;20208;-80
2023/06/22 13:55:55;;;;;;;6.68;5.20;;;;;;;;;;5099971;28;20219;-81
2023/06/22 13:58:21;;;;;;;7.43;6.72;;;;;;;;;;5113385;28;20231;-80
2023/06/22 14:00:49;;;;;;;8.90;6.35;;;;;;;;;;5100298;28;20204;-80
2023/06/22 14:03:17;;;;;;;11.63;5.75;;;;;;;;;;5114192;28;20202;-81
2023/06/22 14:05:43;;;;;;;8.00;6.43;;;;;;;;;;5100636;28;20253;-80
2023/06/22 14:08:10;;;;;;;17.65;7.00;;;;;;;;;;5114110;28;20250;-80
2023/06/22 14:10:37;;;;;;;7.15;6.18;;;;;;;;;;5111180;28;20207;-80
2023/06/22 14:13:05;;;;;;;7.50;6.80;;;;;;;;;;5093607;28;20251;-80
2023/06/22 14:15:32;;;;;;;6.70;6.20;;;;;;;;;;5096435;28;20215;-80
2023/06/22 14:17:59;;;;;;;5.57;5.05;;;;;;;;;;5113543;28;20260;-80
2023/06/22 14:20:27;;;;;;;6.50;6.00;;;;;;;;;;5113708;28;20285;-80
2023/06/22 14:22:54;;;;;;;8.85;6.55;;;;;;;;;;5113722;28;20325;-80
2023/06/22 14:25:20;;;;;;;6.40;5.88;;;;;;;;;;5113825;28;20199;-80
2023/06/22 14:27:47;;;;;;;5.53;4.97;;;;;;;;;;5102244;28;20617;-80
2023/06/22 14:30:14;;;;;;;7.38;6.53;;;;;;;;;;5110495;28;20206;-80
2023/06/22 14:32:41;;;;;;;6.35;5.85;;;;;;;;;;5102775;28;20204;-80
2023/06/22 14:35:08;;;;;;;6.03;5.63;;;;;;;;;;5097497;28;20192;-80
2023/06/22 14:37:38;;;;;;;6.68;6.07;;;;;;;;;;5101917;28;20258;-80
2023/06/22 14:40:07;;;;;;;6.63;6.13;;;;;;;;;;5106126;28;20223;-80
2023/06/22 14:42:33;;;;;;;6.63;5.90;;;;;;;;;;5105314;28;20208;-80
2023/06/22 14:45:00;;;;;;;9.40;8.52;;;;;;;;;;5099446;28;20195;-80
2023/06/22 14:47:28;;;;;;;6.60;6.05;;;;;;;;;;5100330;28;20249;-80